Time;durP1;ratioP1;P1;durP2;ratioP2;P2;SDS_P1;SDS_P2;PMS_P1;PMS_P2;Temp;Humidity;BMP_temperature;BMP_pressure;BME280_temperature;BME280_humidity;BME280_pressure;Samples;Min_cycle;Max_cycle;Signal;HPM_P1;HPM_P2
2022/10/20 00:00:57;;;;;;;;;2.67;2.67;;;;;20.70;61.38;100018.59;5036200;28;46128;-72
2022/10/20 00:03:23;;;;;;;;;2.00;2.00;;;;;20.57;61.34;99996.69;5060645;27;45532;-71
2022/10/20 00:05:49;;;;;;;;;3.67;3.00;;;;;20.56;62.02;99987.84;5036657;28;45452;-72
2022/10/20 00:08:15;;;;;;;;;4.00;3.00;;;;;20.48;62.00;99986.25;5036731;28;45315;-72
2022/10/20 00:10:40;;;;;;;;;3.00;3.00;;;;;20.48;62.48;99999.53;5052162;28;46363;-72
2022/10/20 00:13:06;;;;;;;;;4.00;3.00;;;;;20.31;63.12;99997.19;5036306;28;45724;-72
2022/10/20 00:15:31;;;;;;;;;5.00;3.00;;;;;20.20;62.37;99998.25;5036560;28;45396;-72
2022/10/20 00:17:57;;;;;;;;;3.67;3.00;;;;;20.17;62.35;99997.44;5036817;28;45261;-72
2022/10/20 00:20:23;;;;;;;;;4.00;3.00;;;;;20.10;62.79;99990.50;5034827;28;46964;-72
2022/10/20 00:22:48;;;;;;;;;2.33;2.00;;;;;20.19;62.38;100016.84;5052111;28;45625;-72
2022/10/20 00:25:14;;;;;;;;;3.00;2.00;;;;;20.12;63.31;100004.63;5053481;28;45459;-72
2022/10/20 00:27:39;;;;;;;;;4.00;3.00;;;;;20.03;62.74;99997.69;5053640;28;45255;-72
2022/10/20 00:30:05;;;;;;;;;4.67;3.00;;;;;20.03;63.26;99992.38;5037327;28;45423;-72
2022/10/20 00:32:31;;;;;;;;;3.00;2.00;;;;;20.01;63.37;99987.09;5037197;28;45240;-72
2022/10/20 00:34:56;;;;;;;;;2.33;2.33;;;;;19.99;64.07;99996.84;5037511;28;45449;-72
2022/10/20 00:37:22;;;;;;;;;2.33;2.00;;;;;19.84;63.98;99975.94;5037817;28;45627;-72
2022/10/20 00:39:48;;;;;;;;;0.00;0.00;;;;;19.80;64.04;99992.78;5037520;28;46405;-72
2022/10/20 00:42:16;;;;;;;;;2.67;2.33;;;;;19.79;63.98;100009.59;5037242;28;45424;-72
2022/10/20 00:44:49;;;;;;;;;3.00;2.00;;;;;19.78;64.50;100019.31;5038179;28;45569;-72
2022/10/20 00:47:19;;;;;;;;;5.00;3.33;;;;;19.55;65.12;99990.50;5037850;28;45390;-72
2022/10/20 00:49:46;;;;;;;;;2.00;1.67;;;;;19.53;64.85;99999.38;5035996;28;45611;-72
2022/10/20 00:52:13;;;;;;;;;3.00;3.00;;;;;19.53;64.29;100016.13;5037611;28;45359;-72
2022/10/20 00:54:39;;;;;;;;;3.00;3.00;;;;;19.41;65.11;99995.13;5038028;28;45398;-72
2022/10/20 00:57:05;;;;;;;;;3.00;2.00;;;;;19.39;65.08;100018.13;5037658;28;45485;-72
2022/10/20 00:59:34;;;;;;;;;3.00;2.00;;;;;19.38;65.27;100035.78;5037267;28;46033;-72
2022/10/20 01:02:04;;;;;;;;;3.00;3.00;;;;;19.31;66.44;100055.31;5036062;28;45189;-72
2022/10/20 01:04:30;;;;;;;;;2.00;2.00;;;;;19.23;66.79;100066.00;5035898;28;45615;-72
2022/10/20 01:06:57;;;;;;;;;3.00;2.67;;;;;19.19;66.33;100063.41;5037522;28;45335;-72
2022/10/20 01:09:23;;;;;;;;;3.33;3.33;;;;;19.07;66.25;100014.16;5037040;28;45981;-72
2022/10/20 01:12:08;;;;;;;;;4.67;3.00;;;;;19.01;66.39;100006.28;5037221;28;45525;-72
2022/10/20 01:14:54;;;;;;;;;3.33;3.33;;;;;18.91;66.81;99996.72;5036084;28;45482;-72
2022/10/20 01:17:55;;;;;;;;;4.00;3.00;;;;;19.00;66.48;100023.94;5037047;28;45577;-72
2022/10/20 01:20:59;;;;;;;;;3.00;2.00;;;;;18.94;67.12;100017.84;4982303;28;45528;-72
2022/10/20 01:23:41;;;;;;;;;2.67;2.67;;;;;18.82;66.62;99998.59;5027294;28;45330;-72
2022/10/20 01:26:18;;;;;;;;;4.00;3.67;;;;;18.84;66.49;100006.50;5037045;28;45162;-72
2022/10/20 01:29:22;;;;;;;;;2.67;2.33;;;;;18.82;66.00;100011.81;5036236;28;45462;-72
2022/10/20 01:32:14;;;;;;;;;3.67;2.67;;;;;18.79;66.72;100016.25;5023228;28;45984;-72
2022/10/20 01:34:58;;;;;;;;;4.67;3.00;;;;;18.67;66.94;100001.38;5028669;28;45376;-72
2022/10/20 01:37:49;;;;;;;;;3.00;3.00;;;;;18.69;67.18;100010.19;5037069;28;45559;-72
2022/10/20 01:40:39;;;;;;;;;2.00;1.33;;;;;18.65;67.64;99997.88;5037247;28;45436;-72
2022/10/20 01:43:08;;;;;;;;;2.00;1.67;;;;;18.65;67.12;100006.69;5035504;28;47984;-72
2022/10/20 01:45:37;;;;;;;;;2.33;2.00;;;;;18.62;67.15;100000.56;5036640;28;45586;-72
2022/10/20 01:48:05;;;;;;;;;4.33;3.00;;;;;18.65;67.45;100006.69;5040332;28;45550;-72
2022/10/20 01:50:34;;;;;;;;;4.67;2.67;;;;;18.43;67.42;99984.91;5040595;28;45382;-72
2022/10/20 01:53:01;;;;;;;;;4.67;3.33;;;;;18.45;67.79;99977.81;5039950;28;45557;-72
2022/10/20 01:55:26;;;;;;;;;4.67;3.33;;;;;18.40;67.41;99974.38;5038907;28;45457;-72
2022/10/20 01:58:07;;;;;;;;;3.67;3.67;;;;;18.60;67.08;99983.81;5040495;28;45305;-72
2022/10/20 02:00:37;;;;;;;;;3.33;2.67;;;;;18.58;67.26;99960.06;5040513;28;45414;-72
2022/10/20 02:03:30;;;;;;;;;4.00;3.67;;;;;18.60;67.16;99970.59;5038509;28;45768;-72
2022/10/20 02:06:21;;;;;;;;;3.00;2.33;;;;;18.44;66.99;99939.06;5039957;28;46137;-72
2022/10/20 02:08:51;;;;;;;;;5.33;4.00;;;;;18.57;67.51;99957.44;5039000;28;45293;-72
2022/10/20 02:11:47;;;;;;;;;6.00;4.33;;;;;18.49;67.99;99954.88;5040437;28;45350;-72
2022/10/20 02:14:16;;;;;;;;;3.67;2.67;;;;;18.40;67.60;99918.84;5040148;28;46570;-72
2022/10/20 02:16:49;;;;;;;;;3.00;3.00;;;;;18.39;67.67;99913.56;5040016;28;45478;-72
2022/10/20 02:19:19;;;;;;;;;3.67;3.33;;;;;18.45;67.44;99922.28;5040015;28;45418;-72
2022/10/20 02:21:46;;;;;;;;;4.67;3.67;;;;;18.46;67.79;99910.84;5040468;28;45295;-72
2022/10/20 02:24:14;;;;;;;;;2.33;2.33;;;;;18.35;67.36;99894.22;5039766;28;45512;-72
2022/10/20 02:26:41;;;;;;;;;2.67;2.00;;;;;18.34;66.66;99881.00;5039815;28;45297;-72
2022/10/20 02:29:14;;;;;;;;;6.00;5.00;;;;;18.42;67.45;99911.75;5039471;28;45305;-72
2022/10/20 02:31:40;;;;;;;;;4.00;4.00;;;;;18.28;67.45;99888.13;5039799;28;45922;-72
2022/10/20 02:34:07;;;;;;;;;3.00;3.00;;;;;18.43;67.80;99902.91;5039196;28;45703;-72
2022/10/20 02:36:38;;;;;;;;;4.00;4.00;;;;;18.21;67.82;99888.22;5039383;28;45466;-72
2022/10/20 02:39:03;;;;;;;;;5.00;4.33;;;;;18.24;68.56;99889.06;5039697;28;45423;-72
2022/10/20 02:41:30;;;;;;;;;3.33;3.33;;;;;18.12;68.00;99883.03;5039672;28;45232;-72
2022/10/20 02:43:55;;;;;;;;;3.33;2.67;;;;;18.08;68.03;99871.59;5038119;28;48146;-72
2022/10/20 02:46:21;;;;;;;;;4.33;3.33;;;;;18.10;67.74;99885.69;5039422;28;45304;-72
2022/10/20 02:48:47;;;;;;;;;4.00;3.67;;;;;18.03;68.13;99876.09;5038465;28;45409;-72
2022/10/20 02:51:13;;;;;;;;;3.67;3.00;;;;;17.97;68.13;99857.66;5038479;28;45414;-72
2022/10/20 02:53:38;;;;;;;;;3.67;3.67;;;;;17.91;68.51;99861.25;5036359;28;45466;-72
2022/10/20 02:56:04;;;;;;;;;5.67;4.00;;;;;17.93;68.32;99858.59;5036933;28;45457;-80
2022/10/20 02:58:29;;;;;;;;;4.00;3.33;;;;;17.97;68.77;99865.59;5037623;28;45484;-74
2022/10/20 03:00:55;;;;;;;;;4.33;3.33;;;;;17.88;68.50;99855.97;5037510;28;45381;-72
2022/10/20 03:03:20;;;;;;;;;4.67;4.00;;;;;18.06;68.29;99878.69;5037333;28;45579;-72
2022/10/20 03:05:46;;;;;;;;;3.00;3.00;;;;;18.06;67.96;99866.38;5036105;28;45335;-72
2022/10/20 03:08:12;;;;;;;;;2.67;2.67;;;;;18.07;68.30;99846.09;5037520;28;45413;-72
2022/10/20 03:10:38;;;;;;;;;3.67;3.00;;;;;18.11;68.06;99836.38;5037453;28;45575;-72
2022/10/20 03:13:05;;;;;;;;;5.67;3.00;;;;;17.97;68.71;99833.88;5037016;28;46026;-72
2022/10/20 03:15:31;;;;;;;;;2.67;2.67;;;;;17.93;68.57;99822.47;5037288;28;45232;-72
2022/10/20 03:17:56;;;;;;;;;2.67;2.67;;;;;17.91;68.43;99803.13;5052682;28;45442;-72
2022/10/20 03:20:22;;;;;;;;;4.00;3.00;;;;;17.97;67.85;99789.81;5037364;28;45394;-72
2022/10/20 03:22:47;;;;;;;;;4.33;3.67;;;;;18.13;67.52;99803.72;5037958;28;45517;-74
2022/10/20 03:25:13;;;;;;;;;5.67;3.33;;;;;18.03;67.15;99770.38;5037467;28;45457;-72
2022/10/20 03:27:38;;;;;;;;;3.33;2.67;;;;;18.14;66.87;99781.66;5037295;28;45461;-72
2022/10/20 03:30:05;;;;;;;;;2.67;1.67;;;;;18.07;66.82;99757.09;5037499;28;45642;-72
2022/10/20 03:32:31;;;;;;;;;3.33;2.67;;;;;18.10;66.33;99756.16;5037321;28;45405;-72
2022/10/20 03:34:56;;;;;;;;;5.33;3.00;;;;;18.23;66.42;99762.19;5038544;28;45496;-72
2022/10/20 03:37:22;;;;;;;;;3.67;2.67;;;;;18.16;66.04;99736.72;5048646;28;45566;-72
2022/10/20 03:39:47;;;;;;;;;2.67;2.67;;;;;18.25;65.29;99748.03;5046805;28;45466;-73
2022/10/20 03:42:14;;;;;;;;;2.33;2.33;;;;;18.27;64.49;99732.16;5046539;28;46643;-72
2022/10/20 03:44:39;;;;;;;;;4.67;2.67;;;;;18.37;63.48;99723.19;5063408;28;45536;-72
2022/10/20 03:47:05;;;;;;;;;1.33;1.00;;;;;18.52;61.84;99731.78;5041741;28;45383;-71
2022/10/20 03:49:32;;;;;;;;;2.00;0.67;;;;;18.52;61.26;99713.25;5045798;28;45538;-71
2022/10/20 03:51:57;;;;;;;;;3.33;2.33;;;;;18.48;60.89;99686.88;5047320;28;45477;-71
2022/10/20 03:54:23;;;;;;;;;2.00;1.67;;;;;18.66;59.28;99682.16;5044147;28;45520;-72
2022/10/20 03:56:49;;;;;;;;;1.67;1.00;;;;;18.71;58.18;99664.44;5046161;28;45363;-71
2022/10/20 03:59:14;;;;;;;;;2.00;1.00;;;;;18.94;57.05;99679.06;5047117;28;46233;-72
2022/10/20 04:01:44;;;;;;;;;1.67;1.00;;;;;19.18;55.23;99691.88;5045304;28;45475;-72
2022/10/20 04:04:10;;;;;;;;;0.67;0.67;;;;;19.11;55.25;99658.47;5046999;28;46068;-71
2022/10/20 04:06:36;;;;;;;;;1.33;0.00;;;;;19.35;54.12;99678.28;5047361;28;45861;-71
2022/10/20 04:09:01;;;;;;;;;1.00;1.00;;;;;19.47;53.00;99672.75;5043119;28;45705;-71
2022/10/20 04:11:27;;;;;;;;;2.00;1.00;;;;;19.64;52.26;99684.78;5045377;28;47690;-72
2022/10/20 04:13:53;;;;;;;;;2.00;0.00;;;;;19.78;52.04;99695.13;5046423;28;45571;-72
2022/10/20 04:16:18;;;;;;;;;1.00;1.00;;;;;19.90;51.88;99700.16;5046075;28;45502;-71
2022/10/20 04:18:44;;;;;;;;;1.67;1.00;;;;;19.92;51.68;99689.53;5047520;28;45526;-71
2022/10/20 04:21:09;;;;;;;;;1.00;1.00;;;;;20.00;51.31;99707.00;5045614;28;45485;-71
2022/10/20 04:23:35;;;;;;;;;1.33;0.00;;;;;20.01;51.60;99690.16;5045719;28;45435;-72
2022/10/20 04:26:10;;;;;;;;;2.00;1.00;;;;;20.18;50.62;99707.50;5047193;28;45458;-71
2022/10/20 04:28:36;;;;;;;;;1.00;1.00;;;;;20.31;50.08;99705.41;5045500;28;45389;-71
2022/10/20 04:31:01;;;;;;;;;1.33;1.00;;;;;20.31;50.39;99687.72;5045023;28;45475;-71
2022/10/20 04:33:27;;;;;;;;;1.00;1.00;;;;;20.46;49.45;99705.06;5046785;28;45463;-70
2022/10/20 04:36:00;;;;;;;;;1.00;1.00;;;;;20.52;49.73;99710.22;5046202;28;45303;-71
2022/10/20 04:38:26;;;;;;;;;2.00;1.00;;;;;20.49;49.21;99689.06;5042833;28;45861;-71
2022/10/20 04:40:56;;;;;;;;;1.00;0.67;;;;;20.60;49.86;99700.31;5045730;28;45371;-71
2022/10/20 04:43:21;;;;;;;;;1.00;1.00;;;;;20.46;49.45;99666.13;5047037;28;45251;-72
2022/10/20 04:45:47;;;;;;;;;0.33;0.00;;;;;20.63;49.22;99684.34;5045330;28;45557;-71
2022/10/20 04:48:13;;;;;;;;;1.33;1.00;;;;;20.57;48.49;99651.72;5044631;28;45841;-71
2022/10/20 04:50:38;;;;;;;;;2.00;0.00;;;;;20.78;48.91;99672.44;5044849;28;47069;-71
2022/10/20 04:53:04;;;;;;;;;2.33;1.00;;;;;20.42;48.54;99595.50;5044501;28;45399;-71
2022/10/20 04:55:29;;;;;;;;;2.33;1.00;;;;;20.84;48.80;99663.47;5046304;28;45442;-71
2022/10/20 04:57:55;;;;;;;;;2.33;1.33;;;;;20.84;49.02;99655.50;5046145;28;45381;-72
2022/10/20 05:00:20;;;;;;;;;4.33;3.33;;;;;20.67;48.89;99632.03;5043330;28;48040;-73
2022/10/20 05:02:46;;;;;;;;;1.67;1.00;;;;;20.76;49.47;99639.75;5045370;28;45483;-72
2022/10/20 05:05:11;;;;;;;;;2.67;2.00;;;;;20.65;48.98;99631.19;5061188;28;45433;-72
2022/10/20 05:07:37;;;;;;;;;3.00;0.33;;;;;20.62;49.43;99631.31;5045255;28;45445;-74
2022/10/20 05:10:03;;;;;;;;;1.67;1.00;;;;;20.62;49.56;99623.34;5046410;28;45374;-79
2022/10/20 05:12:29;;;;;;;;;1.67;1.00;;;;;20.63;49.63;99633.03;5059742;28;45422;-74
2022/10/20 05:14:54;;;;;;;;;2.33;1.33;;;;;20.61;49.85;99638.41;5043706;28;45416;-72
2022/10/20 05:17:20;;;;;;;;;2.00;1.00;;;;;20.54;49.63;99626.16;5046983;28;45439;-73
2022/10/20 05:19:45;;;;;;;;;1.00;0.33;;;;;20.54;49.51;99630.59;5041520;28;45937;-72
2022/10/20 05:22:11;;;;;;;;;2.00;1.00;;;;;20.60;49.35;99633.13;5046993;28;45885;-72
2022/10/20 05:24:36;;;;;;;;;0.67;0.67;;;;;20.56;49.49;99612.84;5057071;28;45880;-71
2022/10/20 05:27:02;;;;;;;;;2.00;1.00;;;;;20.62;49.47;99610.06;5043191;28;45649;-71
2022/10/20 05:29:27;;;;;;;;;1.00;0.33;;;;;20.50;49.35;99567.91;5042567;28;46496;-72
2022/10/20 05:31:53;;;;;;;;;1.00;1.00;;;;;20.75;49.17;99613.25;5045496;28;45407;-77
2022/10/20 05:34:18;;;;;;;;;4.67;2.33;;;;;20.70;48.62;99597.47;5061440;28;45500;-76
2022/10/20 05:36:44;;;;;;;;;1.67;1.00;;;;;20.66;48.47;99587.84;5044066;28;45525;-76
2022/10/20 05:39:10;;;;;;;;;3.33;1.67;;;;;20.73;48.46;99583.22;5045788;28;46223;-71
2022/10/20 05:41:35;;;;;;;;;1.00;1.00;;;;;20.75;48.52;99587.59;5043988;28;45422;-71
2022/10/20 05:44:03;;;;;;;;;2.00;1.33;;;;;20.84;48.30;99571.41;5047256;28;45387;-71
2022/10/20 05:46:36;;;;;;;;;1.67;1.33;;;;;20.84;48.22;99568.75;5044272;28;45454;-71
2022/10/20 05:49:02;;;;;;;;;1.67;1.67;;;;;20.89;47.96;99549.19;5042429;28;46293;-71
2022/10/20 05:51:34;;;;;;;;;1.67;1.00;;;;;20.82;48.36;99535.22;5045447;28;45225;-71
2022/10/20 05:53:59;;;;;;;;;2.00;1.33;;;;;20.90;48.26;99545.63;5046221;28;45409;-71
2022/10/20 05:56:27;;;;;;;;;2.00;1.00;;;;;20.95;48.01;99541.03;5042763;28;45355;-71
2022/10/20 05:58:53;;;;;;;;;2.00;2.00;;;;;20.89;47.89;99535.91;5044724;28;46248;-72
2022/10/20 06:01:23;;;;;;;;;2.00;1.00;;;;;20.96;47.56;99522.41;5045867;28;45405;-72
2022/10/20 06:03:57;;;;;;;;;3.00;2.00;;;;;20.96;47.17;99479.06;5042835;28;45390;-71
2022/10/20 06:06:28;;;;;;;;;2.00;2.00;;;;;21.29;46.57;99519.69;5042681;28;45545;-72
2022/10/20 06:08:56;;;;;;;;;3.67;2.00;;;;;21.36;46.43;99521.22;5044169;28;46014;-71
2022/10/20 06:11:23;;;;;;;;;2.00;1.00;;;;;21.44;45.79;99526.34;5045459;28;45435;-78
2022/10/20 06:13:49;;;;;;;;;1.67;1.00;;;;;21.52;45.68;99526.09;5044885;28;45799;-72
2022/10/20 06:16:17;;;;;;;;;3.00;2.00;;;;;21.54;45.60;99530.44;5044354;28;45552;-71
2022/10/20 06:18:43;;;;;;;;;1.33;1.00;;;;;21.59;45.53;99539.16;5045545;28;46425;-71
2022/10/20 06:21:14;;;;;;;;;2.00;1.67;;;;;21.62;45.62;99525.75;5044057;28;45441;-75
2022/10/20 06:23:40;;;;;;;;;1.00;1.00;;;;;21.61;45.65;99526.69;5043487;28;45402;-71
2022/10/20 06:26:08;;;;;;;;;3.67;2.67;;;;;21.65;44.94;99533.63;5045559;28;45493;-72
2022/10/20 06:28:36;;;;;;;;;2.00;1.00;;;;;21.75;45.05;99539.53;5044721;28;45365;-72
2022/10/20 06:31:11;;;;;;;;;1.00;1.00;;;;;21.86;44.66;99525.88;5043387;28;45490;-71
2022/10/20 06:33:38;;;;;;;;;1.67;1.00;;;;;21.80;44.73;99518.97;5047068;28;45946;-72
2022/10/20 06:36:03;;;;;;;;;0.33;0.33;;;;;21.82;44.21;99513.63;5048771;28;45572;-73
2022/10/20 06:38:29;;;;;;;;;3.00;2.00;;;;;21.52;45.12;99468.50;5062896;28;46359;-71
2022/10/20 06:40:54;;;;;;;;;3.00;2.00;;;;;21.85;44.60;99524.16;5047839;28;45350;-72
2022/10/20 06:43:20;;;;;;;;;3.00;2.00;;;;;21.87;44.70;99516.16;5050017;28;45385;-72
2022/10/20 06:45:56;;;;;;;;;4.00;2.00;;;;;21.89;44.63;99515.16;5048088;28;45468;-72
2022/10/20 06:48:23;;;;;;;;;1.67;1.67;;;;;22.11;44.28;99519.78;5036560;28;48243;-77
2022/10/20 06:50:49;;;;;;;;;1.00;1.00;;;;;22.12;44.48;99527.69;5038587;28;45830;-72
2022/10/20 06:53:14;;;;;;;;;4.00;2.33;;;;;22.09;44.38;99517.16;5038308;28;45573;-72
2022/10/20 06:55:40;;;;;;;;;2.00;1.00;;;;;22.18;44.20;99516.84;5038654;28;45473;-77
2022/10/20 06:58:05;;;;;;;;;2.00;1.00;;;;;22.28;44.22;99522.72;5060164;28;47824;-72
2022/10/20 07:00:31;;;;;;;;;3.00;1.00;;;;;22.27;44.41;99514.81;5048604;28;46137;-73
2022/10/20 07:02:56;;;;;;;;;4.00;1.00;;;;;22.34;44.60;99522.56;5049009;28;45595;-74
2022/10/20 07:05:22;;;;;;;;;3.00;2.00;;;;;22.43;43.88;99505.38;5045599;28;45605;-72
2022/10/20 07:07:51;;;;;;;;;3.00;2.67;;;;;22.55;44.27;99525.38;5040275;28;46505;-73
2022/10/20 07:10:16;;;;;;;;;1.00;1.00;;;;;22.57;44.14;99491.59;5062042;28;45546;-74
2022/10/20 07:12:42;;;;;;;;;1.33;1.00;;;;;22.56;43.84;99473.84;5038034;28;46425;-74
2022/10/20 07:15:08;;;;;;;;;4.67;3.00;;;;;22.74;43.91;99485.63;5038559;28;45604;-80
2022/10/20 07:17:33;;;;;;;;;3.00;2.00;;;;;22.87;43.67;99502.88;5038251;28;47483;-72
2022/10/20 07:19:59;;;;;;;;;4.67;3.00;;;;;22.91;43.52;99503.66;5038566;28;45265;-73
2022/10/20 07:22:24;;;;;;;;;2.00;2.00;;;;;22.97;43.72;99520.25;5052295;28;45399;-78
2022/10/20 07:24:50;;;;;;;;;1.00;1.00;;;;;23.01;43.21;99518.34;5037811;28;45560;-72
2022/10/20 07:27:15;;;;;;;;;1.33;1.00;;;;;23.14;43.04;99537.44;5037951;28;46131;-76
2022/10/20 07:29:41;;;;;;;;;3.00;2.33;;;;;23.26;42.76;99541.41;5038105;28;45547;-77
2022/10/20 07:32:06;;;;;;;;;1.33;1.00;;;;;23.36;42.84;99537.50;5038177;28;45424;-82
2022/10/20 07:34:32;;;;;;;;;4.00;1.33;;;;;23.42;42.73;99539.94;5036988;28;45787;-78
2022/10/20 07:36:57;;;;;;;;;2.33;2.00;;;;;23.49;42.63;99541.41;5038084;28;46340;-80
2022/10/20 07:39:23;;;;;;;;;3.67;3.00;;;;;23.57;42.29;99525.97;5037895;28;45596;-76
2022/10/20 07:41:49;;;;;;;;;1.67;1.33;;;;;23.78;41.98;99563.44;5036742;28;45682;-76
2022/10/20 07:44:15;;;;;;;;;2.00;2.00;;;;;23.84;41.58;99560.50;5038054;28;45489;-70
2022/10/20 07:46:41;;;;;;;;;2.00;2.00;;;;;23.72;42.14;99556.50;5036538;28;46721;-71
2022/10/20 07:49:07;;;;;;;;;4.33;3.00;;;;;23.79;42.51;99587.34;5036988;28;45426;-71
2022/10/20 07:51:33;;;;;;;;;3.00;2.00;;;;;23.75;42.50;99590.16;5036843;28;45502;-71
2022/10/20 07:54:07;;;;;;;;;4.00;3.00;;;;;23.83;42.14;99593.44;5037284;28;45406;-74
2022/10/20 07:56:36;;;;;;;;;3.33;2.00;;;;;23.79;42.41;99584.66;5033878;28;45542;-71
2022/10/20 07:59:02;;;;;;;;;2.00;1.67;;;;;23.90;41.97;99607.41;5037517;28;45419;-77
2022/10/20 08:01:28;;;;;;;;;2.67;2.00;;;;;23.78;41.85;99590.94;5052110;28;45505;-73
2022/10/20 08:03:53;;;;;;;;;4.67;4.00;;;;;23.60;41.72;99531.19;5036221;28;45353;-71
2022/10/20 08:06:19;;;;;;;;;2.33;1.00;;;;;24.15;41.35;99607.25;5035992;28;45410;-74
2022/10/20 08:08:45;;;;;;;;;3.33;2.00;;;;;24.26;41.34;99614.84;5036581;28;45305;-74
2022/10/20 08:11:10;;;;;;;;;1.67;0.00;;;;;24.31;40.88;99588.81;5035187;28;45427;-77
2022/10/20 08:13:38;;;;;;;;;2.00;2.00;;;;;24.42;41.29;99595.44;5036839;28;45426;-74
2022/10/20 08:16:04;;;;;;;;;2.67;0.00;;;;;24.54;40.63;99606.56;5036919;28;45585;-73
2022/10/20 08:18:29;;;;;;;;;2.00;1.00;;;;;24.54;40.28;99590.56;5034190;28;45454;-70
2022/10/20 08:21:17;;;;;;;;;3.00;2.00;;;;;24.60;40.25;99607.16;5037917;28;45503;-80
2022/10/20 08:23:45;;;;;;;;;3.00;2.00;;;;;24.62;40.54;99604.44;5037356;28;45473;-75
2022/10/20 08:26:12;;;;;;;;;2.00;1.67;;;;;24.63;40.00;99594.63;5037110;28;45523;-74
2022/10/20 08:28:37;;;;;;;;;2.67;1.00;;;;;24.66;39.86;99589.16;5035689;28;45669;-77
2022/10/20 08:31:05;;;;;;;;;4.00;2.00;;;;;24.83;39.34;99596.41;5037264;28;45357;-73
2022/10/20 08:33:31;;;;;;;;;2.00;2.00;;;;;24.91;39.19;99610.31;5036964;28;45449;-79
2022/10/20 08:36:05;;;;;;;;;2.33;2.00;;;;;24.94;39.19;99605.69;5037034;28;45422;-72
2022/10/20 08:38:30;;;;;;;;;1.00;1.00;;;;;25.09;39.26;99613.97;5036974;28;45451;-75
2022/10/20 08:40:58;;;;;;;;;1.00;1.00;;;;;25.11;38.81;99606.75;5034610;28;45663;-82
2022/10/20 08:43:24;;;;;;;;;1.67;0.00;;;;;25.12;39.11;99604.00;5037276;28;45410;-81
2022/10/20 08:45:49;;;;;;;;;4.00;3.00;;;;;25.26;39.56;99618.59;5035615;28;46696;-72
2022/10/20 08:48:22;;;;;;;;;2.33;1.00;;;;;25.31;39.00;99611.25;5036436;28;45417;-73
2022/10/20 08:50:51;;;;;;;;;0.00;0.00;;;;;25.24;38.38;99591.94;5037634;28;45404;-73
2022/10/20 08:53:19;;;;;;;;;2.00;2.00;;;;;25.54;37.87;99578.94;5037194;28;45417;-73
2022/10/20 08:55:45;;;;;;;;;5.67;2.67;;;;;25.57;37.83;99584.16;5035710;28;46092;-71
2022/10/20 08:58:14;;;;;;;;;2.00;1.00;;;;;25.58;37.88;99568.97;5036545;28;45347;-78
2022/10/20 09:00:41;;;;;;;;;2.67;2.00;;;;;25.61;37.66;99566.16;5036835;28;45438;-74
2022/10/20 09:03:17;;;;;;;;;2.00;2.00;;;;;25.83;37.27;99591.88;5037031;28;45322;-72
2022/10/20 09:05:48;;;;;;;;;2.33;1.00;;;;;25.95;37.04;99581.47;5036754;28;45303;-72
2022/10/20 09:08:14;;;;;;;;;1.00;1.00;;;;;25.91;36.77;99571.84;5035372;28;45454;-72
2022/10/20 09:10:49;;;;;;;;;3.33;2.33;;;;;26.06;37.16;99574.72;5036840;28;45529;-72
2022/10/20 09:13:30;;;;;;;;;3.00;1.00;;;;;26.04;35.35;99569.44;5033992;28;45534;-72
2022/10/20 09:16:17;;;;;;;;;2.33;1.00;;;;;25.75;35.82;99536.06;5035041;28;45744;-73
2022/10/20 09:18:43;;;;;;;;;2.00;2.00;;;;;25.77;35.52;99543.06;5036642;28;45470;-72
2022/10/20 09:21:16;;;;;;;;;0.33;0.00;;;;;25.83;36.11;99562.44;5036477;28;45433;-72
2022/10/20 09:23:45;;;;;;;;;1.00;1.00;;;;;25.92;35.88;99564.69;5036969;28;45355;-72
2022/10/20 09:26:17;;;;;;;;;0.00;0.00;;;;;26.04;35.39;99572.09;5036442;28;46212;-72
2022/10/20 09:28:48;;;;;;;;;1.00;1.00;;;;;26.04;35.85;99579.28;5035011;28;45238;-73
2022/10/20 09:31:46;;;;;;;;;2.00;2.00;;;;;26.03;35.82;99580.25;5036699;28;45315;-72
2022/10/20 09:34:33;;;;;;;;;2.00;1.00;;;;;26.10;35.03;99579.88;5036717;28;45292;-76
2022/10/20 09:37:02;;;;;;;;;2.00;2.00;;;;;26.17;34.91;99594.66;5036172;28;46404;-72
2022/10/20 09:39:31;;;;;;;;;2.67;2.00;;;;;26.42;34.89;99593.41;5034700;28;45547;-76
2022/10/20 09:42:04;;;;;;;;;2.00;2.00;;;;;26.65;34.26;99589.59;5035462;28;45516;-74
2022/10/20 09:44:34;;;;;;;;;4.67;1.33;;;;;26.89;33.93;99568.69;5035736;28;45550;-72
2022/10/20 09:47:01;;;;;;;;;5.33;4.67;;;;;27.30;33.15;99562.09;5034631;28;48086;-72
2022/10/20 09:49:34;;;;;;;;;2.00;1.33;;;;;27.77;32.35;99555.84;5036378;28;45351;-72
2022/10/20 09:52:01;;;;;;;;;4.33;2.00;;;;;27.56;32.01;99561.50;5036366;28;45387;-72
2022/10/20 09:54:28;;;;;;;;;2.00;1.00;;;;;27.38;32.58;99533.88;5036441;28;45451;-72
2022/10/20 09:57:04;;;;;;;;;1.67;1.00;;;;;27.78;31.72;99549.56;5036373;28;45550;-72
2022/10/20 09:59:37;;;;;;;;;1.00;1.00;;;;;28.41;31.67;99556.66;5036351;28;45408;-72
2022/10/20 10:02:22;;;;;;;;;1.67;1.00;;;;;28.77;31.00;99544.66;5035754;28;45511;-73
2022/10/20 10:04:52;;;;;;;;;0.67;0.00;;;;;28.77;30.76;99533.91;5036310;28;45518;-72
2022/10/20 10:07:20;;;;;;;;;4.00;2.00;;;;;28.86;30.90;99549.47;5038271;28;45529;-73
2022/10/20 10:10:04;;;;;;;;;1.00;1.00;;;;;28.74;30.28;99521.50;5039978;28;45304;-72
2022/10/20 10:12:31;;;;;;;;;1.00;1.00;;;;;28.82;31.10;99537.16;5039954;28;45308;-73
2022/10/20 10:14:58;;;;;;;;;2.00;1.00;;;;;28.82;31.22;99542.53;5039962;28;45402;-72
2022/10/20 10:17:37;;;;;;;;;1.33;1.00;;;;;28.75;31.39;99543.91;5039972;28;45288;-72
2022/10/20 10:20:12;;;;;;;;;4.00;1.67;;;;;28.67;31.42;99544.38;5039579;28;45217;-72
2022/10/20 10:22:42;;;;;;;;;3.33;1.00;;;;;28.52;31.40;99535.41;5039345;28;45530;-72
2022/10/20 10:25:24;;;;;;;;;0.67;0.67;;;;;28.54;31.45;99525.44;5039783;28;45396;-76
2022/10/20 10:28:05;;;;;;;;;1.00;1.00;;;;;28.65;31.75;99548.97;5039109;28;45551;-72
2022/10/20 10:30:33;;;;;;;;;1.67;0.00;;;;;28.70;32.03;99548.69;5039545;28;45512;-72
2022/10/20 10:32:59;;;;;;;;;1.00;1.00;;;;;28.77;31.40;99536.59;5039523;28;45389;-74
2022/10/20 10:35:39;;;;;;;;;1.00;1.00;;;;;28.85;31.39;99544.16;5040064;28;45403;-72
2022/10/20 10:38:08;;;;;;;;;2.00;1.00;;;;;28.87;31.71;99550.31;5039068;28;45441;-72
2022/10/20 10:41:05;;;;;;;;;1.00;1.00;;;;;28.87;31.28;99553.88;5039186;28;45351;-72
2022/10/20 10:43:52;;;;;;;;;1.00;1.00;;;;;28.96;31.47;99556.00;5039078;28;45505;-73
2022/10/20 10:46:35;;;;;;;;;1.00;1.00;;;;;29.04;31.82;99557.34;5038192;28;45687;-72
2022/10/20 10:49:36;;;;;;;;;1.00;1.00;;;;;28.95;31.35;99548.03;5039014;28;45493;-73
2022/10/20 10:52:21;;;;;;;;;1.00;0.00;;;;;28.87;31.07;99542.25;5037975;28;45510;-72
2022/10/20 10:55:17;;;;;;;;;4.67;0.00;;;;;28.98;31.73;99542.47;5039088;28;45220;-73
2022/10/20 10:57:59;;;;;;;;;2.67;2.00;;;;;29.04;31.14;99531.31;5039443;28;45379;-72
2022/10/20 11:00:27;;;;;;;;;1.00;1.00;;;;;29.07;30.57;99551.78;5039119;28;46160;-72
2022/10/20 11:03:47;;;;;;;;;1.00;1.00;;;;;29.11;30.75;99550.63;5038684;28;45229;-72
2022/10/20 11:06:24;;;;;;;;;1.00;0.67;;;;;28.99;30.65;99541.50;4977315;28;45366;-72
2022/10/20 11:09:30;;;;;;;;;1.33;0.00;;;;;28.97;30.75;99538.06;4977463;28;45462;-73
2022/10/20 11:12:04;;;;;;;;;3.33;1.00;;;;;29.13;31.23;99538.00;5011083;28;46114;-72
2022/10/20 11:14:51;;;;;;;;;1.00;0.67;;;;;29.14;31.23;99528.94;5039146;28;45494;-72
2022/10/20 11:17:43;;;;;;;;;1.00;1.00;;;;;29.24;30.52;99519.31;5037178;28;45211;-72
2022/10/20 11:20:08;;;;;;;;;0.67;0.33;;;;;29.24;30.19;99548.91;5037786;28;45539;-72
2022/10/20 11:23:04;;;;;;;;;2.00;1.00;;;;;29.07;29.64;99512.31;5037288;28;46075;-72
2022/10/20 11:25:43;;;;;;;;;1.00;1.00;;;;;28.86;30.26;99494.84;5038755;28;45170;-73
2022/10/20 11:28:23;;;;;;;;;2.67;2.00;;;;;28.76;30.08;99510.66;5038970;28;45377;-72
2022/10/20 11:30:50;;;;;;;;;1.33;1.33;;;;;28.58;30.87;99493.88;5038841;28;45340;-72
2022/10/20 11:33:20;;;;;;;;;2.00;1.00;;;;;28.63;30.78;99490.88;5037014;28;45408;-77
2022/10/20 11:35:55;;;;;;;;;1.00;1.00;;;;;28.51;30.37;99492.50;5038665;28;45462;-72
2022/10/20 11:38:34;;;;;;;;;1.00;1.00;;;;;28.24;31.28;99468.16;5038655;28;45494;-73
2022/10/20 11:41:06;;;;;;;;;1.00;1.00;;;;;28.25;31.50;99481.50;5037465;28;45502;-72
2022/10/20 11:43:38;;;;;;;;;4.00;1.00;;;;;28.10;31.54;99461.81;5038320;28;46447;-72
2022/10/20 11:46:10;;;;;;;;;1.33;1.00;;;;;28.20;31.48;99467.50;5038553;28;45319;-72